createdAt,value
2023-05-14T00:01:44.465Z,12.82
2023-05-14T00:04:23.799Z,12.76
2023-05-14T00:07:03.141Z,12.70
2023-05-14T00:09:42.432Z,12.65
2023-05-14T00:12:27.554Z,12.61
2023-05-14T00:15:06.928Z,12.58
2023-05-14T00:17:46.315Z,12.54
2023-05-14T00:20:25.951Z,12.50
2023-05-14T00:23:05.378Z,12.47
2023-05-14T00:25:44.721Z,12.45
2023-05-14T00:28:29.530Z,12.41
2023-05-14T00:31:08.900Z,12.36
2023-05-14T00:33:48.249Z,12.32
2023-05-14T00:36:27.539Z,12.29
2023-05-14T00:39:06.820Z,12.28
2023-05-14T00:41:46.086Z,12.25
2023-05-14T00:44:30.455Z,12.21
2023-05-14T00:47:09.813Z,12.18
2023-05-14T00:49:50.379Z,12.13
2023-05-14T00:52:29.817Z,12.08
2023-05-14T00:55:13.166Z,12.04
2023-05-14T00:57:52.585Z,11.99
2023-05-14T01:00:36.966Z,11.93
2023-05-14T01:03:17.078Z,11.87
2023-05-14T01:06:06.024Z,11.81
2023-05-14T01:08:58.247Z,11.77
2023-05-14T01:11:43.760Z,11.74
2023-05-14T01:14:29.494Z,11.71
2023-05-14T01:17:21.199Z,11.69
2023-05-14T01:20:03.232Z,11.66
2023-05-14T01:22:47.572Z,11.65
2023-05-14T01:25:26.964Z,11.62
2023-05-14T01:28:13.822Z,11.59
2023-05-14T01:31:00.662Z,11.57
2023-05-14T01:33:43.080Z,11.53
2023-05-14T01:36:23.086Z,11.51
2023-05-14T01:39:10.747Z,11.48
2023-05-14T01:41:51.312Z,11.45
2023-05-14T01:44:31.872Z,11.42
2023-05-14T01:47:11.397Z,11.38
2023-05-14T01:49:50.672Z,11.36
2023-05-14T01:52:29.961Z,11.35
2023-05-14T01:55:15.270Z,11.32
2023-05-14T01:57:54.573Z,11.29
2023-05-14T02:00:34.365Z,11.26
2023-05-14T02:03:13.739Z,11.23
2023-05-14T02:05:53.121Z,11.21
2023-05-14T02:08:32.427Z,11.18
2023-05-14T02:11:16.818Z,11.15
2023-05-14T02:13:56.359Z,11.12
2023-05-14T02:16:35.700Z,11.09
2023-05-14T02:19:15.468Z,11.07
2023-05-14T02:21:55.594Z,11.05
2023-05-14T02:24:34.969Z,11.03
2023-05-14T02:27:19.386Z,11.01
2023-05-14T02:30:01.875Z,10.99
2023-05-14T02:32:41.263Z,10.98
2023-05-14T02:35:20.816Z,10.97
2023-05-14T02:38:00.792Z,10.96
2023-05-14T02:40:40.056Z,10.95
2023-05-14T02:43:24.425Z,10.93
2023-05-14T02:46:03.736Z,10.92
2023-05-14T02:48:43.072Z,10.91
2023-05-14T02:51:22.703Z,10.90
2023-05-14T02:54:02.087Z,10.89
2023-05-14T02:56:41.602Z,10.88
2023-05-14T02:59:26.154Z,10.88
2023-05-14T03:02:05.799Z,10.89
2023-05-14T03:04:45.645Z,10.90
2023-05-14T03:07:24.952Z,10.91
2023-05-14T03:10:04.366Z,10.93
2023-05-14T03:12:43.774Z,10.95
2023-05-14T03:15:28.188Z,10.98
2023-05-14T03:18:07.952Z,10.99
2023-05-14T03:20:49.344Z,11.00
2023-05-14T03:23:28.712Z,11.01
2023-05-14T03:26:08.302Z,11.01
2023-05-14T03:28:48.166Z,11.01
2023-05-14T03:31:32.800Z,11.02
2023-05-14T03:34:12.210Z,11.01
2023-05-14T03:36:51.594Z,11.01
2023-05-14T03:39:30.937Z,11.02
2023-05-14T03:42:10.303Z,11.02
2023-05-14T03:44:49.651Z,11.04
2023-05-14T03:47:34.201Z,11.06
2023-05-14T03:50:15.406Z,11.06
2023-05-14T03:52:54.807Z,11.03
2023-05-14T03:55:34.154Z,10.98
2023-05-14T03:58:15.258Z,10.93
2023-05-14T04:00:54.970Z,10.91
2023-05-14T04:03:39.485Z,10.89
2023-05-14T04:06:19.011Z,10.87
2023-05-14T04:08:58.341Z,10.86
2023-05-14T04:11:37.693Z,10.85
2023-05-14T04:14:17.121Z,10.84
2023-05-14T04:16:56.412Z,10.85
2023-05-14T04:19:41.704Z,10.87
2023-05-14T04:22:21.003Z,10.89
2023-05-14T04:25:00.314Z,10.92
2023-05-14T04:27:41.378Z,10.93
2023-05-14T04:30:21.161Z,10.96
2023-05-14T04:33:00.711Z,10.98
2023-05-14T04:35:45.169Z,11.02
2023-05-14T04:38:24.461Z,11.06
2023-05-14T04:41:03.746Z,11.09
2023-05-14T04:43:43.067Z,11.13
2023-05-14T04:46:22.457Z,11.17
2023-05-14T04:49:02.024Z,11.19
2023-05-14T04:51:46.469Z,11.22
2023-05-14T04:54:25.832Z,11.25
2023-05-14T04:57:05.941Z,11.29
2023-05-14T04:59:45.248Z,11.32
2023-05-14T05:02:24.570Z,11.35
2023-05-14T05:05:04.063Z,11.39
2023-05-14T05:07:48.452Z,11.41
2023-05-14T05:10:27.783Z,11.46
2023-05-14T05:13:07.472Z,11.48
2023-05-14T05:15:47.143Z,11.48
2023-05-14T05:18:26.576Z,11.46
2023-05-14T05:21:05.963Z,11.46
2023-05-14T05:23:50.311Z,11.44
2023-05-14T05:26:31.750Z,11.43
2023-05-14T05:29:11.769Z,11.42
2023-05-14T05:31:51.259Z,11.42
2023-05-14T05:34:30.749Z,11.45
2023-05-14T05:37:13.913Z,11.48
2023-05-14T05:39:58.295Z,11.53
2023-05-14T05:42:37.649Z,11.59
2023-05-14T05:45:17.891Z,11.65
2023-05-14T05:47:57.256Z,11.70
2023-05-14T05:50:36.744Z,11.75
2023-05-14T05:53:17.784Z,11.81
2023-05-14T05:56:02.182Z,11.89
2023-05-14T05:58:41.588Z,11.98
2023-05-14T06:01:21.022Z,12.08
2023-05-14T06:04:00.780Z,12.15
2023-05-14T06:06:40.225Z,12.24
2023-05-14T06:09:19.632Z,12.32
2023-05-14T06:12:04.026Z,12.39
2023-05-14T06:14:43.315Z,12.49
2023-05-14T06:17:22.748Z,12.57
2023-05-14T06:20:02.242Z,12.65
2023-05-14T06:22:41.624Z,12.72
2023-05-14T06:25:21.001Z,12.80
2023-05-14T06:28:05.385Z,12.86
2023-05-14T06:30:44.768Z,12.90
2023-05-14T06:33:31.025Z,12.92
2023-05-14T06:36:12.761Z,12.96
2023-05-14T06:38:52.203Z,13.00
2023-05-14T06:41:31.580Z,13.02
2023-05-14T06:44:15.980Z,13.03
2023-05-14T06:46:55.282Z,13.07
2023-05-14T06:49:34.583Z,13.13
2023-05-14T06:52:14.406Z,13.20
2023-05-14T06:54:53.701Z,13.27
2023-05-14T06:57:33.021Z,13.37
2023-05-14T07:00:18.809Z,13.45
2023-05-14T07:02:58.201Z,13.57
2023-05-14T07:05:37.677Z,13.69
2023-05-14T07:08:17.003Z,13.81
2023-05-14T07:10:56.274Z,13.90
2023-05-14T07:13:35.707Z,14.00
2023-05-14T07:16:20.477Z,14.10
2023-05-14T07:18:59.918Z,14.24
2023-05-14T07:21:39.270Z,14.37
2023-05-14T07:24:18.582Z,14.52
2023-05-14T07:26:58.494Z,14.65
2023-05-14T07:29:37.756Z,14.76
2023-05-14T07:32:22.182Z,14.83
2023-05-14T07:35:01.558Z,14.90
2023-05-14T07:37:42.809Z,14.96
2023-05-14T07:40:22.810Z,15.03
2023-05-14T07:43:04.432Z,15.11
2023-05-14T07:45:44.226Z,15.19
2023-05-14T07:48:30.419Z,15.27
2023-05-14T07:51:09.787Z,15.35
2023-05-14T07:53:49.103Z,15.41
2023-05-14T07:56:28.659Z,15.50
2023-05-14T07:59:08.342Z,15.67
2023-05-14T08:01:48.161Z,15.84
2023-05-14T08:04:32.752Z,15.98
2023-05-14T08:07:12.620Z,16.11
2023-05-14T08:09:51.924Z,16.18
2023-05-14T08:12:31.532Z,16.21
2023-05-14T08:15:11.678Z,16.25
2023-05-14T08:17:51.019Z,16.32
2023-05-14T08:20:35.540Z,16.42
2023-05-14T08:23:15.084Z,16.62
2023-05-14T08:25:54.390Z,16.73
2023-05-14T08:28:33.671Z,16.80
2023-05-14T08:31:15.964Z,16.88
2023-05-14T08:33:55.399Z,17.02
2023-05-14T08:36:39.886Z,17.13
2023-05-14T08:39:19.237Z,17.29
2023-05-14T08:41:59.388Z,17.36
2023-05-14T08:44:46.315Z,17.45
2023-05-14T08:47:29.626Z,17.57
2023-05-14T08:50:11.439Z,17.66
2023-05-14T08:52:57.465Z,17.82
2023-05-14T08:55:38.637Z,18.01
2023-05-14T08:58:18.421Z,18.18
2023-05-14T09:00:57.827Z,18.35
2023-05-14T09:03:38.539Z,18.59
2023-05-14T09:06:20.623Z,18.76
2023-05-14T09:09:05.129Z,18.82
2023-05-14T09:11:48.702Z,18.87
2023-05-14T09:14:29.675Z,18.91
2023-05-14T09:17:09.098Z,18.94
2023-05-14T09:19:50.351Z,18.98
2023-05-14T09:22:30.044Z,18.99
2023-05-14T09:25:16.908Z,19.00
2023-05-14T09:27:58.773Z,19.02
2023-05-14T09:30:38.349Z,19.08
2023-05-14T09:33:19.191Z,19.11
2023-05-14T09:35:59.104Z,19.17
2023-05-14T09:38:40.254Z,19.22
2023-05-14T09:41:24.700Z,19.27
2023-05-14T09:44:06.676Z,19.31
2023-05-14T09:46:46.188Z,19.35
2023-05-14T09:49:26.183Z,19.44
2023-05-14T09:52:06.112Z,19.53
2023-05-14T09:54:47.062Z,19.60
2023-05-14T09:57:31.530Z,19.67
2023-05-14T10:00:12.973Z,19.71
2023-05-14T10:02:55.088Z,19.73
2023-05-14T10:05:36.061Z,19.74
2023-05-14T10:08:20.819Z,19.69
2023-05-14T10:11:02.538Z,19.65
2023-05-14T10:13:53.898Z,19.63
2023-05-14T10:16:36.331Z,19.59
2023-05-14T10:19:18.510Z,19.54
2023-05-14T10:22:09.627Z,19.45
2023-05-14T10:24:51.551Z,19.36
2023-05-14T10:27:31.555Z,19.29
2023-05-14T10:30:19.431Z,19.25
2023-05-14T10:33:14.583Z,19.22
2023-05-14T10:36:04.654Z,19.22
2023-05-14T10:38:45.710Z,19.21
2023-05-14T10:41:25.173Z,19.20
2023-05-14T10:44:05.097Z,19.17
2023-05-14T10:46:49.982Z,19.12
2023-05-14T10:49:43.003Z,19.09
2023-05-14T10:52:25.679Z,19.07
2023-05-14T10:55:08.903Z,19.07
2023-05-14T10:57:50.745Z,19.09
2023-05-14T11:00:35.305Z,19.11
2023-05-14T11:03:21.310Z,19.14
2023-05-14T11:06:03.182Z,19.15
2023-05-14T11:08:42.982Z,19.18
2023-05-14T11:11:23.051Z,19.21
2023-05-14T11:14:03.607Z,19.24
2023-05-14T11:16:43.152Z,19.26
2023-05-14T11:19:29.214Z,19.29
2023-05-14T11:22:09.273Z,19.30
2023-05-14T11:24:48.990Z,19.31
2023-05-14T11:27:29.637Z,19.31
2023-05-14T11:30:10.335Z,19.33
2023-05-14T11:32:53.764Z,19.37
2023-05-14T11:35:38.591Z,19.45
2023-05-14T11:38:21.728Z,19.56
2023-05-14T11:41:02.106Z,19.66
2023-05-14T11:43:46.619Z,19.79
2023-05-14T11:46:27.379Z,19.93
2023-05-14T11:49:08.466Z,20.08
2023-05-14T11:51:52.829Z,20.23
2023-05-14T11:54:33.891Z,20.37
2023-05-14T11:57:17.878Z,20.53
2023-05-14T12:00:05.899Z,20.70
2023-05-14T12:02:45.517Z,20.91
2023-05-14T12:05:25.348Z,21.08
2023-05-14T12:08:09.784Z,21.27
2023-05-14T12:10:49.541Z,21.39
2023-05-14T12:13:29.294Z,21.53
2023-05-14T12:16:10.099Z,22.36
2023-05-14T12:18:50.837Z,22.63
2023-05-14T12:21:32.382Z,22.77
2023-05-14T12:24:18.191Z,22.94
2023-05-14T12:27:00.520Z,23.47
2023-05-14T12:29:44.275Z,23.67
2023-05-14T12:32:23.658Z,23.83
2023-05-14T12:35:03.020Z,24.07
2023-05-14T12:37:43.816Z,24.18
2023-05-14T12:40:28.314Z,24.38
2023-05-14T12:43:07.786Z,24.42
2023-05-14T12:45:47.115Z,24.54
2023-05-14T12:48:26.519Z,24.70
2023-05-14T12:51:05.880Z,24.88
2023-05-14T12:53:45.251Z,25.09
2023-05-14T12:56:29.766Z,25.12
2023-05-14T12:59:10.638Z,25.09
2023-05-14T13:01:50.010Z,24.77
2023-05-14T13:04:29.480Z,24.44
2023-05-14T13:07:10.052Z,24.21
2023-05-14T13:09:49.448Z,23.95
2023-05-14T13:12:33.860Z,23.67
2023-05-14T13:15:14.355Z,23.45
2023-05-14T13:17:53.673Z,23.23
2023-05-14T13:20:33.628Z,23.08
2023-05-14T13:23:13.082Z,22.93
2023-05-14T13:25:52.381Z,22.79
2023-05-14T13:28:36.861Z,22.67
2023-05-14T13:31:18.157Z,22.69
2023-05-14T13:33:59.227Z,23.21
2023-05-14T13:36:40.818Z,23.68
2023-05-14T13:39:23.804Z,24.15
2023-05-14T13:42:03.088Z,24.44
2023-05-14T13:44:47.475Z,24.63
2023-05-14T13:47:26.899Z,24.76
2023-05-14T13:50:06.384Z,24.90
2023-05-14T13:52:45.727Z,25.09
2023-05-14T13:55:25.273Z,25.08
2023-05-14T13:58:05.573Z,24.80
2023-05-14T14:00:50.051Z,24.46
2023-05-14T14:03:29.401Z,24.13
2023-05-14T14:06:08.658Z,23.86
2023-05-14T14:08:47.954Z,23.61
2023-05-14T14:11:27.359Z,23.61
2023-05-14T14:14:06.785Z,24.22
2023-05-14T14:16:51.522Z,25.09
2023-05-14T14:19:31.282Z,25.22
2023-05-14T14:22:10.733Z,25.06
2023-05-14T14:24:50.046Z,24.83
2023-05-14T14:27:29.511Z,24.49
2023-05-14T14:30:08.808Z,24.04
2023-05-14T14:32:54.105Z,23.58
2023-05-14T14:35:34.614Z,23.52
2023-05-14T14:38:13.964Z,23.65
2023-05-14T14:40:53.566Z,24.05
2023-05-14T14:43:32.954Z,24.34
2023-05-14T14:46:12.622Z,24.43
2023-05-14T14:48:57.070Z,24.60
2023-05-14T14:51:36.575Z,24.78
2023-05-14T14:54:15.919Z,25.02
2023-05-14T14:56:55.577Z,25.35
2023-05-14T14:59:34.848Z,25.69
2023-05-14T15:02:16.673Z,25.86
2023-05-14T15:05:01.209Z,25.86
2023-05-14T15:07:40.589Z,26.02
2023-05-14T15:10:19.897Z,25.62
2023-05-14T15:12:59.250Z,25.56
2023-05-14T15:15:39.780Z,25.67
2023-05-14T15:18:19.086Z,26.14
2023-05-14T15:21:03.484Z,26.65
2023-05-14T15:23:42.835Z,27.00
2023-05-14T15:26:22.967Z,27.16
2023-05-14T15:29:02.293Z,27.27
2023-05-14T15:31:42.531Z,27.40
2023-05-14T15:34:21.887Z,27.41
2023-05-14T15:37:06.260Z,27.41
2023-05-14T15:39:45.796Z,27.39
2023-05-14T15:42:25.216Z,27.33
2023-05-14T15:45:04.602Z,26.87
2023-05-14T15:47:45.476Z,26.59
2023-05-14T15:50:25.725Z,26.64
2023-05-14T15:53:10.427Z,26.73
2023-05-14T15:55:53.250Z,26.82
2023-05-14T15:58:32.849Z,26.95
2023-05-14T16:01:12.472Z,27.03
2023-05-14T16:03:52.742Z,26.94
2023-05-14T16:06:33.468Z,26.94
2023-05-14T16:09:17.953Z,26.94
2023-05-14T16:11:57.321Z,26.95
2023-05-14T16:14:36.616Z,26.98
2023-05-14T16:17:16.086Z,27.07
2023-05-14T16:19:56.776Z,27.03
2023-05-14T16:22:37.254Z,26.99
2023-05-14T16:25:21.819Z,26.98
2023-05-14T16:28:01.701Z,26.96
2023-05-14T16:30:41.155Z,26.86
2023-05-14T16:33:20.531Z,26.74
2023-05-14T16:35:59.897Z,26.74
2023-05-14T16:38:48.196Z,26.75
2023-05-14T16:41:41.494Z,26.77
2023-05-14T16:44:20.789Z,26.82
2023-05-14T16:47:00.166Z,26.83
2023-05-14T16:49:39.431Z,26.56
2023-05-14T16:52:18.732Z,26.31
2023-05-14T16:54:58.132Z,25.94
2023-05-14T16:57:42.679Z,25.59
2023-05-14T17:00:22.780Z,25.35
2023-05-14T17:03:03.731Z,25.26
2023-05-14T17:05:43.297Z,25.25
2023-05-14T17:08:22.676Z,25.15
2023-05-14T17:11:02.282Z,24.94
2023-05-14T17:13:46.635Z,24.71
2023-05-14T17:16:26.495Z,24.46
2023-05-14T17:19:06.140Z,24.27
2023-05-14T17:21:45.448Z,24.07
2023-05-14T17:24:24.749Z,23.88
2023-05-14T17:27:04.156Z,23.74
2023-05-14T17:29:50.472Z,23.59
2023-05-14T17:32:30.778Z,23.46
2023-05-14T17:35:10.904Z,23.31
2023-05-14T17:37:50.288Z,23.18
2023-05-14T17:40:29.576Z,23.02
2023-05-14T17:43:09.683Z,22.76
2023-05-14T17:45:54.902Z,21.57
2023-05-14T17:48:34.496Z,20.52
2023-05-14T17:51:13.929Z,20.14
2023-05-14T17:53:53.227Z,19.90
2023-05-14T17:56:32.690Z,19.76
2023-05-14T17:59:12.113Z,19.55
2023-05-14T18:01:56.517Z,19.33
2023-05-14T18:04:37.729Z,19.10
2023-05-14T18:07:17.568Z,18.94
2023-05-14T18:10:01.541Z,18.84
2023-05-14T18:12:40.850Z,18.79
2023-05-14T18:15:21.477Z,18.73
2023-05-14T18:18:06.322Z,18.66
2023-05-14T18:20:48.793Z,18.57
2023-05-14T18:23:28.403Z,18.47
2023-05-14T18:26:07.946Z,18.43
2023-05-14T18:28:47.927Z,18.37
2023-05-14T18:31:28.624Z,18.29
2023-05-14T18:34:13.036Z,18.24
2023-05-14T18:36:52.310Z,18.21
2023-05-14T18:39:31.614Z,18.17
2023-05-14T18:42:11.956Z,18.13
2023-05-14T18:44:51.250Z,18.10
2023-05-14T18:47:30.631Z,18.07
2023-05-14T18:50:16.884Z,18.00
2023-05-14T18:52:56.156Z,17.94
2023-05-14T18:55:35.616Z,17.90
2023-05-14T18:58:15.722Z,17.85
2023-05-14T19:00:55.124Z,17.77
2023-05-14T19:03:35.071Z,17.69
2023-05-14T19:06:19.641Z,17.60
2023-05-14T19:08:59.813Z,17.52
2023-05-14T19:11:39.300Z,17.43
2023-05-14T19:14:18.628Z,17.38
2023-05-14T19:16:58.604Z,17.32
2023-05-14T19:19:38.586Z,17.27
2023-05-14T19:22:23.159Z,17.16
2023-05-14T19:25:03.226Z,17.06
2023-05-14T19:27:46.062Z,16.98
2023-05-14T19:30:26.863Z,16.92
2023-05-14T19:33:06.214Z,16.84
2023-05-14T19:35:45.604Z,16.71
2023-05-14T19:38:30.817Z,16.63
2023-05-14T19:41:10.109Z,16.57
2023-05-14T19:43:49.415Z,16.51
2023-05-14T19:46:28.938Z,16.47
2023-05-14T19:49:08.299Z,16.43
2023-05-14T19:51:47.618Z,16.41
2023-05-14T19:54:32.106Z,16.41
2023-05-14T19:57:12.332Z,16.38
2023-05-14T19:59:51.626Z,16.35
2023-05-14T20:02:30.962Z,16.33
2023-05-14T20:05:10.281Z,16.31
2023-05-14T20:07:50.112Z,16.27
2023-05-14T20:10:34.643Z,16.26
2023-05-14T20:13:14.155Z,16.24
2023-05-14T20:15:53.469Z,16.20
2023-05-14T20:18:33.188Z,16.15
2023-05-14T20:21:12.834Z,16.11
2023-05-14T20:23:52.103Z,16.07
2023-05-14T20:26:36.954Z,16.04
2023-05-14T20:29:16.930Z,16.00
2023-05-14T20:31:56.264Z,15.98
2023-05-14T20:34:37.098Z,15.96
2023-05-14T20:37:16.435Z,15.96
2023-05-14T20:39:55.997Z,15.97
2023-05-14T20:42:40.378Z,15.96
2023-05-14T20:45:21.365Z,15.95
2023-05-14T20:48:00.741Z,15.94
2023-05-14T20:50:40.204Z,15.91
2023-05-14T20:53:19.570Z,15.90
2023-05-14T20:56:00.115Z,15.89
2023-05-14T20:58:44.493Z,15.88
2023-05-14T21:01:23.837Z,15.87
2023-05-14T21:04:03.299Z,15.86
2023-05-14T21:06:42.848Z,15.86
2023-05-14T21:09:22.517Z,15.81
2023-05-14T21:12:01.987Z,15.67
2023-05-14T21:14:46.370Z,15.56
2023-05-14T21:17:25.887Z,15.50
2023-05-14T21:20:05.285Z,15.46
2023-05-14T21:22:44.645Z,15.42
2023-05-14T21:25:24.145Z,15.39
2023-05-14T21:28:03.798Z,15.36
2023-05-14T21:30:48.205Z,15.33
2023-05-14T21:33:27.469Z,15.31
2023-05-14T21:36:06.878Z,15.31
2023-05-14T21:38:46.528Z,15.30
2023-05-14T21:41:25.825Z,15.31
2023-05-14T21:44:05.093Z,15.31
2023-05-14T21:46:49.576Z,15.32
2023-05-14T21:49:28.963Z,15.32
2023-05-14T21:52:08.360Z,15.34
2023-05-14T21:54:47.674Z,15.34
2023-05-14T21:57:28.614Z,15.34
2023-05-14T22:00:11.533Z,15.35
2023-05-14T22:02:56.499Z,15.36
2023-05-14T22:05:36.416Z,15.35
2023-05-14T22:08:15.745Z,15.35
2023-05-14T22:10:55.112Z,15.34
2023-05-14T22:13:36.244Z,15.33
2023-05-14T22:16:15.989Z,15.32
2023-05-14T22:19:00.438Z,15.24
2023-05-14T22:21:39.810Z,15.16
2023-05-14T22:24:19.127Z,15.10
2023-05-14T22:26:58.463Z,15.06
2023-05-14T22:29:38.480Z,15.03
2023-05-14T22:32:17.874Z,14.99
2023-05-14T22:35:02.988Z,14.97
2023-05-14T22:37:42.433Z,14.95
2023-05-14T22:40:21.768Z,14.91
2023-05-14T22:43:01.144Z,14.86
2023-05-14T22:45:40.661Z,14.79
2023-05-14T22:48:19.995Z,14.76
2023-05-14T22:51:04.355Z,14.74
2023-05-14T22:53:43.726Z,14.70
2023-05-14T22:56:23.371Z,14.66
2023-05-14T22:59:02.776Z,14.63
2023-05-14T23:01:42.121Z,14.60
2023-05-14T23:04:21.817Z,14.58
2023-05-14T23:07:06.278Z,14.56
2023-05-14T23:09:45.836Z,14.54
2023-05-14T23:12:25.157Z,14.52
2023-05-14T23:15:05.198Z,14.50
2023-05-14T23:17:45.112Z,14.49
2023-05-14T23:20:24.659Z,14.47
2023-05-14T23:23:09.043Z,14.43
2023-05-14T23:25:50.031Z,14.40
2023-05-14T23:28:29.415Z,14.36
2023-05-14T23:31:08.709Z,14.33
2023-05-14T23:33:47.989Z,14.29
2023-05-14T23:36:27.314Z,14.25
2023-05-14T23:39:12.076Z,14.20
2023-05-14T23:41:51.388Z,14.16
2023-05-14T23:44:30.665Z,14.12
2023-05-14T23:47:10.538Z,14.09
2023-05-14T23:49:49.921Z,14.06
2023-05-14T23:52:29.238Z,14.02
2023-05-14T23:55:14.517Z,13.97
2023-05-14T23:57:54.303Z,13.94
